Askov, Minnesota
Current Conditions -  °F | °C
As of 6:44 AM on Friday 24 Oct 2014 (Local Time) from K04W Reporting Station
Haze Haze  
Wind Chill: 46°   Ceiling: 200
Heat Index: 46°   Visibility: 0.75mi
Dew Point: 46°   Wind: 0mph
Humidity: 100%   Direction: NA
Pressure: 29.9"   Gusts: NA
Location:  46.19°N, 92.78°W
Report Text: K04W 241144Z AUTO 00000KT 3/4SM BR OVC002 08/08 A2990 RMK AO2
Loading
Personal Weather Stations






























Interactive Weather Map
Tropical Storm Tracking
New forecast layout! Learn more

10-Day Weather Forecast

Advertisements
Track Severe Weather on mobile